Tinsdal — V2AJ2 — position and weather

sailwx.info

Track history (hours):
 
Tides and Currents Weather Stations Pressure Air Temp Water Temp Dewpoint Dewpoint Depression Visibility Wind Speed Wind Dir Waves Ship Positions

Tinsdal

Last reported at 2017-Oct-16 22:16 UTC. Time now 2017-Oct-17 01:59 UTC.
Position N 42°54' E 010°35'.

Length 90 m; draft 5.7 m.

Type: Cargo ship. MMSI: 305573000.

Date/timePositionNaut miles runAvg speedWind from/ knotsBaromVisibWave heightAir tempDewpointWater temp
2017-Oct-16 22:16N 42°54' E 010°35'0 0.1
2017-Oct-16 21:50N 42°54' E 010°35'3 7.7
2017-Oct-16 21:27N 42°54' E 010°31'810.6
2017-Oct-16 20:39N 42°58' E 010°21'410.8
2017-Oct-16 20:19N 43°00' E 010°17'410.7
2017-Oct-16 19:58N 43°02' E 010°12'510.6
2017-Oct-16 19:28N 43°05' E 010°06'510.5
2017-Oct-16 19:00N 43°07' E 010°00'510.5
2017-Oct-16 18:30N 43°10' E 009°54'510.5
2017-Oct-16 18:00N 43°11' E 009°47'510.2
2017-Oct-16 17:30N 43°11' E 009°40'510.2
2017-Oct-16 17:00N 43°10' E 009°33'610.6
2017-Oct-16 16:24N 43°08' E 009°24'410.8
2017-Oct-16 15:59N 43°08' E 009°19'510.7
2017-Oct-16 15:30N 43°07' E 009°12'610.7
2017-Oct-16 14:59N 43°06' E 009°04'1110.3
2017-Oct-16 13:53N 43°04' E 008°49'510.0
2017-Oct-16 13:26N 43°03' E 008°43'710.1
2017-Oct-16 12:46N 43°01' E 008°34'90 9.6
2017-Oct-16 03:24N 42°45' E 006°33'4 9.4
2017-Oct-16 02:58N 42°44' E 006°27'4 9.4
2017-Oct-16 02:30N 42°43' E 006°22'23 9.2
2017-Oct-15 23:57N 42°46' E 005°50'15 9.5
2017-Oct-15 22:20N 42°54' E 005°32'7 9.4
2017-Oct-15 21:35N 42°59' E 005°25'2 9.4
2017-Oct-15 21:25N 42°60' E 005°23'12 9.6
2017-Oct-15 20:09N 43°07' E 005°10'1 9.7
2017-Oct-15 20:00N 43°08' E 005°08'5 9.8
2017-Oct-15 19:29N 43°11' E 005°02'5 9.5
2017-Oct-15 18:57N 43°15' E 004°60'4 9.9
2017-Oct-15 18:30N 43°20' E 004°58'4 8.1
2017-Oct-15 18:00N 43°23' E 004°56'3 5.1
2017-Oct-15 17:27N 43°26' E 004°54'0 0.0
2017-Oct-15 17:00N 43°26' E 004°54'0 0.0
2017-Oct-15 15:36N 43°26' E 004°54'0 0.0
2017-Oct-15 15:21N 43°26' E 004°54'0 0.0
2017-Oct-15 14:57N 43°26' E 004°54'0 0.0
2017-Oct-15 13:06N 43°26' E 004°54'0 0.0
2017-Oct-15 12:51N 43°26' E 004°54'0 0.0
2017-Oct-15 10:54N 43°26' E 004°54'0 0.0
2017-Oct-15 09:36N 43°26' E 004°54'0 0.0
2017-Oct-15 09:21N 43°26' E 004°54'0 0.0
2017-Oct-15 09:00N 43°26' E 004°54'0 0.0
2017-Oct-15 08:30N 43°26' E 004°54'0 0.0
2017-Oct-15 07:42N 43°26' E 004°54'0 0.0
2017-Oct-15 07:30N 43°26' E 004°54'0 0.0
2017-Oct-15 06:51N 43°26' E 004°54'0 0.0
2017-Oct-15 06:30N 43°26' E 004°54'0 0.0
2017-Oct-15 06:00N 43°26' E 004°54'0 0.0
2017-Oct-15 05:24N 43°26' E 004°54'0 0.0
2017-Oct-15 04:57N 43°26' E 004°54'0 0.0
2017-Oct-15 04:24N 43°26' E 004°54'0 0.0
2017-Oct-15 03:45N 43°26' E 004°54'0 0.0
2017-Oct-15 02:42N 43°26' E 004°54'0 0.0
2017-Oct-15 02:27N 43°26' E 004°54'0 0.0
2017-Oct-15 02:00N 43°26' E 004°54'0 0.0
2017-Oct-14 23:36N 43°26' E 004°54'0 0.0
2017-Oct-14 23:27N 43°26' E 004°54'0 0.0
2017-Oct-14 21:42N 43°26' E 004°54'0 0.0
2017-Oct-14 21:27N 43°26' E 004°54'0 0.0
2017-Oct-14 20:57N 43°26' E 004°54'0 0.0
2017-Oct-14 20:27N 43°26' E 004°54'0 0.0
2017-Oct-14 19:57N 43°26' E 004°54'0 0.0
2017-Oct-14 19:06N 43°26' E 004°54'0 0.1
2017-Oct-14 19:00N 43°26' E 004°54'2 4.2
2017-Oct-14 18:29N 43°24' E 004°56'0 0.1
2017-Oct-14 17:51N 43°24' E 004°56'0 0.0
2017-Oct-14 14:15N 43°24' E 004°56'0 0.0
2017-Oct-14 13:48N 43°24' E 004°56'0 0.0
2017-Oct-14 12:21N 43°24' E 004°56'0 0.0
2017-Oct-14 10:42N 43°24' E 004°56'0 0.0
2017-Oct-14 10:30N 43°24' E 004°56'0 0.0
2017-Oct-14 09:51N 43°24' E 004°56'0 0.0
2017-Oct-14 09:30N 43°24' E 004°56'0 0.0
2017-Oct-14 09:00N 43°24' E 004°56'0 0.0
2017-Oct-14 07:51N 43°24' E 004°56'0 0.0
2017-Oct-14 07:30N 43°24' E 004°56'0 0.0
2017-Oct-14 05:42N 43°24' E 004°56'0 0.0
2017-Oct-14 04:27N 43°24' E 004°56'0 0.0
2017-Oct-14 03:54N 43°24' E 004°56'0 0.0
2017-Oct-14 01:42N 43°24' E 004°56'0 0.2
2017-Oct-14 01:09N 43°24' E 004°56'0 1.6
2017-Oct-14 00:59N 43°24' E 004°56'4 8.5
2017-Oct-14 00:30N 43°20' E 004°59'710.3
2017-Oct-13 23:46N 43°13' E 005°02'310.8
2017-Oct-13 23:30N 43°10' E 005°03'611.1
2017-Oct-13 22:59N 43°05' E 005°04'5110.7
2017-Oct-13 18:14N 42°14' E 005°11'  
2017-Oct-07 00:11N 36°32' W 000°16'2 9.8
2017-Oct-06 23:57N 36°32' W 000°18'4 9.7
2017-Oct-06 23:30N 36°31' W 000°24'7 9.5
2017-Oct-06 22:49N 36°30' W 000°32'3 9.7
2017-Oct-06 22:28N 36°29' W 000°36'  
Track history (hours):
 
Tides and Currents Weather Stations Pressure Air Temp Water Temp Dewpoint Dewpoint Depression Visibility Wind Speed Wind Dir Waves Ship Positions

Tinsdal

Last reported at 2017-Oct-16 22:16 UTC. Time now 2017-Oct-17 01:59 UTC.
Position N 42°54' E 010°35'.

Length 90 m; draft 5.7 m.

Type: Cargo ship. MMSI: 305573000.

Date/timePositionNaut miles runAvg speedWind from/ knotsBaromVisibWave heightAir tempDewpointWater temp
2017-Oct-16 22:16N 42°54' E 010°35'0 0.1
2017-Oct-16 21:50N 42°54' E 010°35'3 7.7
2017-Oct-16 21:27N 42°54' E 010°31'810.6
2017-Oct-16 20:39N 42°58' E 010°21'410.8
2017-Oct-16 20:19N 43°00' E 010°17'410.7
2017-Oct-16 19:58N 43°02' E 010°12'510.6
2017-Oct-16 19:28N 43°05' E 010°06'510.5
2017-Oct-16 19:00N 43°07' E 010°00'510.5
2017-Oct-16 18:30N 43°10' E 009°54'510.5
2017-Oct-16 18:00N 43°11' E 009°47'510.2
2017-Oct-16 17:30N 43°11' E 009°40'510.2
2017-Oct-16 17:00N 43°10' E 009°33'610.6
2017-Oct-16 16:24N 43°08' E 009°24'410.8
2017-Oct-16 15:59N 43°08' E 009°19'510.7
2017-Oct-16 15:30N 43°07' E 009°12'610.7
2017-Oct-16 14:59N 43°06' E 009°04'1110.3
2017-Oct-16 13:53N 43°04' E 008°49'510.0
2017-Oct-16 13:26N 43°03' E 008°43'710.1
2017-Oct-16 12:46N 43°01' E 008°34'90 9.6
2017-Oct-16 03:24N 42°45' E 006°33'4 9.4
2017-Oct-16 02:58N 42°44' E 006°27'4 9.4
2017-Oct-16 02:30N 42°43' E 006°22'23 9.2
2017-Oct-15 23:57N 42°46' E 005°50'15 9.5
2017-Oct-15 22:20N 42°54' E 005°32'7 9.4
2017-Oct-15 21:35N 42°59' E 005°25'2 9.4
2017-Oct-15 21:25N 42°60' E 005°23'12 9.6
2017-Oct-15 20:09N 43°07' E 005°10'1 9.7
2017-Oct-15 20:00N 43°08' E 005°08'5 9.8
2017-Oct-15 19:29N 43°11' E 005°02'5 9.5
2017-Oct-15 18:57N 43°15' E 004°60'4 9.9
2017-Oct-15 18:30N 43°20' E 004°58'4 8.1
2017-Oct-15 18:00N 43°23' E 004°56'3 5.1
2017-Oct-15 17:27N 43°26' E 004°54'0 0.0
2017-Oct-15 17:00N 43°26' E 004°54'0 0.0
2017-Oct-15 15:36N 43°26' E 004°54'0 0.0
2017-Oct-15 15:21N 43°26' E 004°54'0 0.0
2017-Oct-15 14:57N 43°26' E 004°54'0 0.0
2017-Oct-15 13:06N 43°26' E 004°54'0 0.0
2017-Oct-15 12:51N 43°26' E 004°54'0 0.0
2017-Oct-15 10:54N 43°26' E 004°54'0 0.0
2017-Oct-15 09:36N 43°26' E 004°54'0 0.0
2017-Oct-15 09:21N 43°26' E 004°54'0 0.0
2017-Oct-15 09:00N 43°26' E 004°54'0 0.0
2017-Oct-15 08:30N 43°26' E 004°54'0 0.0
2017-Oct-15 07:42N 43°26' E 004°54'0 0.0
2017-Oct-15 07:30N 43°26' E 004°54'0 0.0
2017-Oct-15 06:51N 43°26' E 004°54'0 0.0
2017-Oct-15 06:30N 43°26' E 004°54'0 0.0
2017-Oct-15 06:00N 43°26' E 004°54'0 0.0
2017-Oct-15 05:24N 43°26' E 004°54'0 0.0
2017-Oct-15 04:57N 43°26' E 004°54'0 0.0
2017-Oct-15 04:24N 43°26' E 004°54'0 0.0
2017-Oct-15 03:45N 43°26' E 004°54'0 0.0
2017-Oct-15 02:42N 43°26' E 004°54'0 0.0
2017-Oct-15 02:27N 43°26' E 004°54'0 0.0
2017-Oct-15 02:00N 43°26' E 004°54'0 0.0
2017-Oct-14 23:36N 43°26' E 004°54'0 0.0
2017-Oct-14 23:27N 43°26' E 004°54'0 0.0
2017-Oct-14 21:42N 43°26' E 004°54'0 0.0
2017-Oct-14 21:27N 43°26' E 004°54'0 0.0
2017-Oct-14 20:57N 43°26' E 004°54'0 0.0
2017-Oct-14 20:27N 43°26' E 004°54'0 0.0
2017-Oct-14 19:57N 43°26' E 004°54'0 0.0
2017-Oct-14 19:06N 43°26' E 004°54'0 0.1
2017-Oct-14 19:00N 43°26' E 004°54'2 4.2
2017-Oct-14 18:29N 43°24' E 004°56'0 0.1
2017-Oct-14 17:51N 43°24' E 004°56'0 0.0
2017-Oct-14 14:15N 43°24' E 004°56'0 0.0
2017-Oct-14 13:48N 43°24' E 004°56'0 0.0
2017-Oct-14 12:21N 43°24' E 004°56'0 0.0
2017-Oct-14 10:42N 43°24' E 004°56'0 0.0
2017-Oct-14 10:30N 43°24' E 004°56'0 0.0
2017-Oct-14 09:51N 43°24' E 004°56'0 0.0
2017-Oct-14 09:30N 43°24' E 004°56'0 0.0
2017-Oct-14 09:00N 43°24' E 004°56'0 0.0
2017-Oct-14 07:51N 43°24' E 004°56'0 0.0
2017-Oct-14 07:30N 43°24' E 004°56'0 0.0
2017-Oct-14 05:42N 43°24' E 004°56'0 0.0
2017-Oct-14 04:27N 43°24' E 004°56'0 0.0
2017-Oct-14 03:54N 43°24' E 004°56'0 0.0
2017-Oct-14 01:42N 43°24' E 004°56'0 0.2
2017-Oct-14 01:09N 43°24' E 004°56'0 1.6
2017-Oct-14 00:59N 43°24' E 004°56'4 8.5
2017-Oct-14 00:30N 43°20' E 004°59'710.3
2017-Oct-13 23:46N 43°13' E 005°02'310.8
2017-Oct-13 23:30N 43°10' E 005°03'611.1
2017-Oct-13 22:59N 43°05' E 005°04'5110.7
2017-Oct-13 18:14N 42°14' E 005°11'  
2017-Oct-07 00:11N 36°32' W 000°16'2 9.8
2017-Oct-06 23:57N 36°32' W 000°18'4 9.7
2017-Oct-06 23:30N 36°31' W 000°24'7 9.5
2017-Oct-06 22:49N 36°30' W 000°32'3 9.7
2017-Oct-06 22:28N 36°29' W 000°36'  

Dump ship's entire track history